Aviation Digital Data Service (ADDS)

Output produced by METARs form (1358 UTC 22 April 2019)
found at http://www.aviationweather.gov/metar/data/
 
METAR text: LTBJ 221320Z 33016KT CAVOK 19/03 Q1019 NOSIG RMK RWY16 32015KT
Conditions at: LTBJ (IZMIR/ADNAN MEND, TR) observed 1320 UTC 22 April 2019
Temperature: 19.0°C (66°F)
Dewpoint: 3.0°C (37°F) [RH = 34%]
Pressure (altimeter): 30.09 inches Hg (1019.0 mb)
Winds: from the NNW (330 degrees) at 18 MPH (16 knots; 8.2 m/s)
Visibility: 6 or more miles (10+ km)
Ceiling: ceiling and visibility are OK
Clouds: unknown
Weather: no significant weather observed at this time

METAR text: LTBJ 221250Z 34015KT 310V010 CAVOK 18/03 Q1019 NOSIG RMK RWY16 33014KT
Conditions at: LTBJ (IZMIR/ADNAN MEND, TR) observed 1250 UTC 22 April 2019
Temperature: 18.0°C (64°F)
Dewpoint: 3.0°C (37°F) [RH = 37%]
Pressure (altimeter): 30.09 inches Hg (1019.0 mb)
Winds: from the NNW (340 degrees) at 17 MPH (15 knots; 7.7 m/s)
Visibility: 6 or more miles (10+ km)
Ceiling: ceiling and visibility are OK
Clouds: unknown
Weather: no significant weather observed at this time

METAR text: LTBJ 221220Z 01015KT CAVOK 19/02 Q1019 NOSIG RMK RWY16 34016KT
Conditions at: LTBJ (IZMIR/ADNAN MEND, TR) observed 1220 UTC 22 April 2019
Temperature: 19.0°C (66°F)
Dewpoint: 2.0°C (36°F) [RH = 32%]
Pressure (altimeter): 30.09 inches Hg (1019.0 mb)
Winds: from the N (10 degrees) at 17 MPH (15 knots; 7.7 m/s)
Visibility: 6 or more miles (10+ km)
Ceiling: ceiling and visibility are OK
Clouds: unknown
Weather: no significant weather observed at this time

METAR text: LTBJ 221150Z 33017KT CAVOK 19/01 Q1020 NOSIG RMK RWY16 33016KT
Conditions at: LTBJ (IZMIR/ADNAN MEND, TR) observed 1150 UTC 22 April 2019
Temperature: 19.0°C (66°F)
Dewpoint: 1.0°C (34°F) [RH = 30%]
Pressure (altimeter): 30.12 inches Hg (1020.0 mb)
Winds: from the NNW (330 degrees) at 20 MPH (17 knots; 8.7 m/s)
Visibility: 6 or more miles (10+ km)
Ceiling: ceiling and visibility are OK
Clouds: unknown
Weather: no significant weather observed at this time

METAR text: LTBJ 221120Z 34013KT 300V010 CAVOK 18/01 Q1020 NOSIG RMK RWY16 33014KT 300V360
Conditions at: LTBJ (IZMIR/ADNAN MEND, TR) observed 1120 UTC 22 April 2019
Temperature: 18.0°C (64°F)
Dewpoint: 1.0°C (34°F) [RH = 32%]
Pressure (altimeter): 30.12 inches Hg (1020.0 mb)
Winds: from the NNW (340 degrees) at 15 MPH (13 knots; 6.7 m/s)
Visibility: 6 or more miles (10+ km)
Ceiling: ceiling and visibility are OK
Clouds: unknown
Weather: no significant weather observed at this time

METAR text: LTBJ 221050Z 35015G25KT 320V030 CAVOK 18/00 Q1020 NOSIG RMK RWY16 34015KT 310V010
Conditions at: LTBJ (IZMIR/ADNAN MEND, TR) observed 1050 UTC 22 April 2019
Temperature: 18.0°C (64°F)
Dewpoint: 0.0°C (32°F) [RH = 30%]
Pressure (altimeter): 30.12 inches Hg (1020.0 mb)
Winds: from the N (350 degrees) at 17 MPH (15 knots; 7.7 m/s)
gusting to 29 MPH (25 knots; 12.9 m/s)
Visibility: 6 or more miles (10+ km)
Ceiling: ceiling and visibility are OK
Clouds: unknown
Weather: no significant weather observed at this time

METAR text: LTBJ 221020Z 35016KT 320V020 CAVOK 17/01 Q1020 NOSIG RMK RWY16 33016KT
Conditions at: LTBJ (IZMIR/ADNAN MEND, TR) observed 1020 UTC 22 April 2019
Temperature: 17.0°C (63°F)
Dewpoint: 1.0°C (34°F) [RH = 34%]
Pressure (altimeter): 30.12 inches Hg (1020.0 mb)
Winds: from the N (350 degrees) at 18 MPH (16 knots; 8.2 m/s)
Visibility: 6 or more miles (10+ km)
Ceiling: ceiling and visibility are OK
Clouds: unknown
Weather: no significant weather observed at this time

METAR text: LTBJ 220950Z 34015KT CAVOK 16/M00 Q1020 NOSIG RMK RWY16 33014KT
Conditions at: LTBJ (IZMIR/ADNAN MEND, TR) observed 0950 UTC 22 April 2019
Temperature: 16.0°C (61°F)
Dewpoint: 0.0°C (32°F) [RH = 34%]
Pressure (altimeter): 30.12 inches Hg (1020.0 mb)
Winds: from the NNW (340 degrees) at 17 MPH (15 knots; 7.7 m/s)
Visibility: 6 or more miles (10+ km)
Ceiling: ceiling and visibility are OK
Clouds: unknown
Weather: no significant weather observed at this time

METAR text: LTBJ 220920Z 34013KT 300V360 CAVOK 16/M01 Q1021 NOSIG RMK RWY16 33017KT
Conditions at: LTBJ (IZMIR/ADNAN MEND, TR) observed 0920 UTC 22 April 2019
Temperature: 16.0°C (61°F)
Dewpoint: -1.0°C (30°F) [RH = 31%]
Pressure (altimeter): 30.15 inches Hg (1021.0 mb)
Winds: from the NNW (340 degrees) at 15 MPH (13 knots; 6.7 m/s)
Visibility: 6 or more miles (10+ km)
Ceiling: ceiling and visibility are OK
Clouds: unknown
Weather: no significant weather observed at this time

METAR text: LTBJ 220850Z 35015KT 320V020 CAVOK 15/M01 Q1021 NOSIG RMK RWY16 33016G26KT 310V010
Conditions at: LTBJ (IZMIR/ADNAN MEND, TR) observed 0850 UTC 22 April 2019
Temperature: 15.0°C (59°F)
Dewpoint: -1.0°C (30°F) [RH = 33%]
Pressure (altimeter): 30.15 inches Hg (1021.0 mb)
Winds: from the N (350 degrees) at 17 MPH (15 knots; 7.7 m/s)
Visibility: 6 or more miles (10+ km)
Ceiling: ceiling and visibility are OK
Clouds: unknown
Weather: no significant weather observed at this time

METAR text: LTBJ 220820Z 02020KT CAVOK 16/M01 Q1021 NOSIG RMK RWY16 36016KT
Conditions at: LTBJ (IZMIR/ADNAN MEND, TR) observed 0820 UTC 22 April 2019
Temperature: 16.0°C (61°F)
Dewpoint: -1.0°C (30°F) [RH = 31%]
Pressure (altimeter): 30.15 inches Hg (1021.0 mb)
Winds: from the NNE (20 degrees) at 23 MPH (20 knots; 10.3 m/s)
Visibility: 6 or more miles (10+ km)
Ceiling: ceiling and visibility are OK
Clouds: unknown
Weather: no significant weather observed at this time

METAR text: LTBJ 220750Z 35016KT CAVOK 15/M01 Q1020 NOSIG RMK RWY16 36015KT
Conditions at: LTBJ (IZMIR/ADNAN MEND, TR) observed 0750 UTC 22 April 2019
Temperature: 15.0°C (59°F)
Dewpoint: -1.0°C (30°F) [RH = 33%]
Pressure (altimeter): 30.12 inches Hg (1020.0 mb)
Winds: from the N (350 degrees) at 18 MPH (16 knots; 8.2 m/s)
Visibility: 6 or more miles (10+ km)
Ceiling: ceiling and visibility are OK
Clouds: unknown
Weather: no significant weather observed at this time

METAR text: LTBJ 220720Z 34016KT CAVOK 15/M03 Q1020 NOSIG RMK RWY16 34015KT
Conditions at: LTBJ (IZMIR/ADNAN MEND, TR) observed 0720 UTC 22 April 2019
Temperature: 15.0°C (59°F)
Dewpoint: -3.0°C (27°F) [RH = 29%]
Pressure (altimeter): 30.12 inches Hg (1020.0 mb)
Winds: from the NNW (340 degrees) at 18 MPH (16 knots; 8.2 m/s)
Visibility: 6 or more miles (10+ km)
Ceiling: ceiling and visibility are OK
Clouds: unknown
Weather: no significant weather observed at this time

METAR text: LTBJ 220650Z 35014KT CAVOK 14/M04 Q1020 NOSIG RMK RWY16 34014KT
Conditions at: LTBJ (IZMIR/ADNAN MEND, TR) observed 0650 UTC 22 April 2019
Temperature: 14.0°C (57°F)
Dewpoint: -4.0°C (25°F) [RH = 28%]
Pressure (altimeter): 30.12 inches Hg (1020.0 mb)
Winds: from the N (350 degrees) at 16 MPH (14 knots; 7.2 m/s)
Visibility: 6 or more miles (10+ km)
Ceiling: ceiling and visibility are OK
Clouds: unknown
Weather: no significant weather observed at this time

METAR text: LTBJ 220620Z 33011KT CAVOK 13/M03 Q1020 NOSIG RMK RWY16 34013KT
Conditions at: LTBJ (IZMIR/ADNAN MEND, TR) observed 0620 UTC 22 April 2019
Temperature: 13.0°C (55°F)
Dewpoint: -3.0°C (27°F) [RH = 33%]
Pressure (altimeter): 30.12 inches Hg (1020.0 mb)
Winds: from the NNW (330 degrees) at 13 MPH (11 knots; 5.7 m/s)
Visibility: 6 or more miles (10+ km)
Ceiling: ceiling and visibility are OK
Clouds: unknown
Weather: no significant weather observed at this time

METAR text: LTBJ 220550Z 35012KT CAVOK 12/M04 Q1020 NOSIG RMK RWY16 34014KT
Conditions at: LTBJ (IZMIR/ADNAN MEND, TR) observed 0550 UTC 22 April 2019
Temperature: 12.0°C (54°F)
Dewpoint: -4.0°C (25°F) [RH = 32%]
Pressure (altimeter): 30.12 inches Hg (1020.0 mb)
Winds: from the N (350 degrees) at 14 MPH (12 knots; 6.2 m/s)
Visibility: 6 or more miles (10+ km)
Ceiling: ceiling and visibility are OK
Clouds: unknown
Weather: no significant weather observed at this time

METAR text: LTBJ 220520Z 36011KT CAVOK 11/M04 Q1019 NOSIG RMK RWY16 34013KT
Conditions at: LTBJ (IZMIR/ADNAN MEND, TR) observed 0520 UTC 22 April 2019
Temperature: 11.0°C (52°F)
Dewpoint: -4.0°C (25°F) [RH = 35%]
Pressure (altimeter): 30.09 inches Hg (1019.0 mb)
Winds: from the N (360 degrees) at 13 MPH (11 knots; 5.7 m/s)
Visibility: 6 or more miles (10+ km)
Ceiling: ceiling and visibility are OK
Clouds: unknown
Weather: no significant weather observed at this time

METAR text: LTBJ 220450Z 36008KT 330V030 CAVOK 10/M03 Q1020 NOSIG RMK RWY16 34011KT
Conditions at: LTBJ (IZMIR/ADNAN MEND, TR) observed 0450 UTC 22 April 2019
Temperature: 10.0°C (50°F)
Dewpoint: -3.0°C (27°F) [RH = 40%]
Pressure (altimeter): 30.12 inches Hg (1020.0 mb)
Winds: from the N (360 degrees) at 9 MPH (8 knots; 4.1 m/s)
Visibility: 6 or more miles (10+ km)
Ceiling: ceiling and visibility are OK
Clouds: unknown
Weather: no significant weather observed at this time

METAR text: LTBJ 220420Z 01007KT CAVOK 08/M03 Q1019 NOSIG RMK RWY16 34010KT
Conditions at: LTBJ (IZMIR/ADNAN MEND, TR) observed 0420 UTC 22 April 2019
Temperature: 8.0°C (46°F)
Dewpoint: -3.0°C (27°F) [RH = 46%]
Pressure (altimeter): 30.09 inches Hg (1019.0 mb)
Winds: from the N (10 degrees) at 8 MPH (7 knots; 3.6 m/s)
Visibility: 6 or more miles (10+ km)
Ceiling: ceiling and visibility are OK
Clouds: unknown
Weather: no significant weather observed at this time

METAR text: LTBJ 220350Z 01009KT 340V040 CAVOK 09/M04 Q1019 NOSIG RMK RWY16 34012KT
Conditions at: LTBJ (IZMIR/ADNAN MEND, TR) observed 0350 UTC 22 April 2019
Temperature: 9.0°C (48°F)
Dewpoint: -4.0°C (25°F) [RH = 40%]
Pressure (altimeter): 30.09 inches Hg (1019.0 mb)
Winds: from the N (10 degrees) at 10 MPH (9 knots; 4.6 m/s)
Visibility: 6 or more miles (10+ km)
Ceiling: ceiling and visibility are OK
Clouds: unknown
Weather: no significant weather observed at this time

METAR text: LTBJ 220320Z 03006KT 360V060 CAVOK 08/M04 Q1019 NOSIG RMK RWY16 34010KT
Conditions at: LTBJ (IZMIR/ADNAN MEND, TR) observed 0320 UTC 22 April 2019
Temperature: 8.0°C (46°F)
Dewpoint: -4.0°C (25°F) [RH = 42%]
Pressure (altimeter): 30.09 inches Hg (1019.0 mb)
Winds: from the NNE (30 degrees) at 7 MPH (6 knots; 3.1 m/s)
Visibility: 6 or more miles (10+ km)
Ceiling: ceiling and visibility are OK
Clouds: unknown
Weather: no significant weather observed at this time

METAR text: LTBJ 220250Z 03006KT 340V060 CAVOK 08/M04 Q1019 NOSIG RMK RWY16 34012KT
Conditions at: LTBJ (IZMIR/ADNAN MEND, TR) observed 0250 UTC 22 April 2019
Temperature: 8.0°C (46°F)
Dewpoint: -4.0°C (25°F) [RH = 42%]
Pressure (altimeter): 30.09 inches Hg (1019.0 mb)
Winds: from the NNE (30 degrees) at 7 MPH (6 knots; 3.1 m/s)
Visibility: 6 or more miles (10+ km)
Ceiling: ceiling and visibility are OK
Clouds: unknown
Weather: no significant weather observed at this time

METAR text: LTBJ 220220Z 03008KT CAVOK 08/M04 Q1019 NOSIG RMK RWY16 35012KT
Conditions at: LTBJ (IZMIR/ADNAN MEND, TR) observed 0220 UTC 22 April 2019
Temperature: 8.0°C (46°F)
Dewpoint: -4.0°C (25°F) [RH = 42%]
Pressure (altimeter): 30.09 inches Hg (1019.0 mb)
Winds: from the NNE (30 degrees) at 9 MPH (8 knots; 4.1 m/s)
Visibility: 6 or more miles (10+ km)
Ceiling: ceiling and visibility are OK
Clouds: unknown
Weather: no significant weather observed at this time

METAR text: LTBJ 220150Z 01006KT CAVOK 06/M03 Q1019 NOSIG RMK RWY16 35009KT
Conditions at: LTBJ (IZMIR/ADNAN MEND, TR) observed 0150 UTC 22 April 2019
Temperature: 6.0°C (43°F)
Dewpoint: -3.0°C (27°F) [RH = 52%]
Pressure (altimeter): 30.09 inches Hg (1019.0 mb)
Winds: from the N (10 degrees) at 7 MPH (6 knots; 3.1 m/s)
Visibility: 6 or more miles (10+ km)
Ceiling: ceiling and visibility are OK
Clouds: unknown
Weather: no significant weather observed at this time

METAR text: LTBJ 220120Z 36006KT CAVOK 07/M03 Q1019 NOSIG RMK RWY16 36006KT
Conditions at: LTBJ (IZMIR/ADNAN MEND, TR) observed 0120 UTC 22 April 2019
Temperature: 7.0°C (45°F)
Dewpoint: -3.0°C (27°F) [RH = 49%]
Pressure (altimeter): 30.09 inches Hg (1019.0 mb)
Winds: from the N (360 degrees) at 7 MPH (6 knots; 3.1 m/s)
Visibility: 6 or more miles (10+ km)
Ceiling: ceiling and visibility are OK
Clouds: unknown
Weather: no significant weather observed at this time

METAR text: LTBJ 220050Z 01008KT CAVOK 08/M03 Q1020 NOSIG RMK RWY16 35007KT
Conditions at: LTBJ (IZMIR/ADNAN MEND, TR) observed 0050 UTC 22 April 2019
Temperature: 8.0°C (46°F)
Dewpoint: -3.0°C (27°F) [RH = 46%]
Pressure (altimeter): 30.12 inches Hg (1020.0 mb)
Winds: from the N (10 degrees) at 9 MPH (8 knots; 4.1 m/s)
Visibility: 6 or more miles (10+ km)
Ceiling: ceiling and visibility are OK
Clouds: unknown
Weather: no significant weather observed at this time

METAR text: LTBJ 220020Z 36008KT CAVOK 08/M02 Q1020 NOSIG RMK RWY16 34009KT
Conditions at: LTBJ (IZMIR/ADNAN MEND, TR) observed 0020 UTC 22 April 2019
Temperature: 8.0°C (46°F)
Dewpoint: -2.0°C (28°F) [RH = 49%]
Pressure (altimeter): 30.12 inches Hg (1020.0 mb)
Winds: from the N (360 degrees) at 9 MPH (8 knots; 4.1 m/s)
Visibility: 6 or more miles (10+ km)
Ceiling: ceiling and visibility are OK
Clouds: unknown
Weather: no significant weather observed at this time

METAR text: LTBJ 212350Z 34011KT 300V010 CAVOK 10/M03 Q1020 NOSIG RMK RWY16 34010KT
Conditions at: LTBJ (IZMIR/ADNAN MEND, TR) observed 2350 UTC 21 April 2019
Temperature: 10.0°C (50°F)
Dewpoint: -3.0°C (27°F) [RH = 40%]
Pressure (altimeter): 30.12 inches Hg (1020.0 mb)
Winds: from the NNW (340 degrees) at 13 MPH (11 knots; 5.7 m/s)
Visibility: 6 or more miles (10+ km)
Ceiling: ceiling and visibility are OK
Clouds: unknown
Weather: no significant weather observed at this time

METAR text: LTBJ 212320Z 35014KT CAVOK 10/M03 Q1020 NOSIG RMK RWY16 33010KT
Conditions at: LTBJ (IZMIR/ADNAN MEND, TR) observed 2320 UTC 21 April 2019
Temperature: 10.0°C (50°F)
Dewpoint: -3.0°C (27°F) [RH = 40%]
Pressure (altimeter): 30.12 inches Hg (1020.0 mb)
Winds: from the N (350 degrees) at 16 MPH (14 knots; 7.2 m/s)
Visibility: 6 or more miles (10+ km)
Ceiling: ceiling and visibility are OK
Clouds: unknown
Weather: no significant weather observed at this time

METAR text: LTBJ 212250Z 36014KT CAVOK 10/M03 Q1020 NOSIG RMK RWY16 34011KT 310V010
Conditions at: LTBJ (IZMIR/ADNAN MEND, TR) observed 2250 UTC 21 April 2019
Temperature: 10.0°C (50°F)
Dewpoint: -3.0°C (27°F) [RH = 40%]
Pressure (altimeter): 30.12 inches Hg (1020.0 mb)
Winds: from the N (360 degrees) at 16 MPH (14 knots; 7.2 m/s)
Visibility: 6 or more miles (10+ km)
Ceiling: ceiling and visibility are OK
Clouds: unknown
Weather: no significant weather observed at this time

METAR text: LTBJ 212220Z 35016KT CAVOK 10/M04 Q1020 NOSIG RMK RWY16 35012KT
Conditions at: LTBJ (IZMIR/ADNAN MEND, TR) observed 2220 UTC 21 April 2019
Temperature: 10.0°C (50°F)
Dewpoint: -4.0°C (25°F) [RH = 37%]
Pressure (altimeter): 30.12 inches Hg (1020.0 mb)
Winds: from the N (350 degrees) at 18 MPH (16 knots; 8.2 m/s)
Visibility: 6 or more miles (10+ km)
Ceiling: ceiling and visibility are OK
Clouds: unknown
Weather: no significant weather observed at this time

METAR text: LTBJ 212150Z 36015KT CAVOK 10/M03 Q1020 NOSIG RMK RWY16 35013KT
Conditions at: LTBJ (IZMIR/ADNAN MEND, TR) observed 2150 UTC 21 April 2019
Temperature: 10.0°C (50°F)
Dewpoint: -3.0°C (27°F) [RH = 40%]
Pressure (altimeter): 30.12 inches Hg (1020.0 mb)
Winds: from the N (360 degrees) at 17 MPH (15 knots; 7.7 m/s)
Visibility: 6 or more miles (10+ km)
Ceiling: ceiling and visibility are OK
Clouds: unknown
Weather: no significant weather observed at this time

METAR text: LTBJ 212120Z 35016KT CAVOK 11/M03 Q1020 NOSIG RMK RWY16 34015KT
Conditions at: LTBJ (IZMIR/ADNAN MEND, TR) observed 2120 UTC 21 April 2019
Temperature: 11.0°C (52°F)
Dewpoint: -3.0°C (27°F) [RH = 37%]
Pressure (altimeter): 30.12 inches Hg (1020.0 mb)
Winds: from the N (350 degrees) at 18 MPH (16 knots; 8.2 m/s)
Visibility: 6 or more miles (10+ km)
Ceiling: ceiling and visibility are OK
Clouds: unknown
Weather: no significant weather observed at this time

METAR text: LTBJ 212050Z 35017KT CAVOK 11/M02 Q1020 NOSIG RMK RWY16 35015KT
Conditions at: LTBJ (IZMIR/ADNAN MEND, TR) observed 2050 UTC 21 April 2019
Temperature: 11.0°C (52°F)
Dewpoint: -2.0°C (28°F) [RH = 40%]
Pressure (altimeter): 30.12 inches Hg (1020.0 mb)
Winds: from the N (350 degrees) at 20 MPH (17 knots; 8.7 m/s)
Visibility: 6 or more miles (10+ km)
Ceiling: ceiling and visibility are OK
Clouds: unknown
Weather: no significant weather observed at this time

METAR text: LTBJ 212020Z 35014KT CAVOK 11/M02 Q1020 NOSIG RMK RWY16 35012KT
Conditions at: LTBJ (IZMIR/ADNAN MEND, TR) observed 2020 UTC 21 April 2019
Temperature: 11.0°C (52°F)
Dewpoint: -2.0°C (28°F) [RH = 40%]
Pressure (altimeter): 30.12 inches Hg (1020.0 mb)
Winds: from the N (350 degrees) at 16 MPH (14 knots; 7.2 m/s)
Visibility: 6 or more miles (10+ km)
Ceiling: ceiling and visibility are OK
Clouds: unknown
Weather: no significant weather observed at this time

METAR text: LTBJ 211950Z 01012KT CAVOK 11/M02 Q1020 NOSIG RMK RWY16 36011KT
Conditions at: LTBJ (IZMIR/ADNAN MEND, TR) observed 1950 UTC 21 April 2019
Temperature: 11.0°C (52°F)
Dewpoint: -2.0°C (28°F) [RH = 40%]
Pressure (altimeter): 30.12 inches Hg (1020.0 mb)
Winds: from the N (10 degrees) at 14 MPH (12 knots; 6.2 m/s)
Visibility: 6 or more miles (10+ km)
Ceiling: ceiling and visibility are OK
Clouds: unknown
Weather: no significant weather observed at this time

METAR text: LTBJ 211920Z 01014KT CAVOK 11/M02 Q1020 NOSIG RMK RWY16 36012KT
Conditions at: LTBJ (IZMIR/ADNAN MEND, TR) observed 1920 UTC 21 April 2019
Temperature: 11.0°C (52°F)
Dewpoint: -2.0°C (28°F) [RH = 40%]
Pressure (altimeter): 30.12 inches Hg (1020.0 mb)
Winds: from the N (10 degrees) at 16 MPH (14 knots; 7.2 m/s)
Visibility: 6 or more miles (10+ km)
Ceiling: ceiling and visibility are OK
Clouds: unknown
Weather: no significant weather observed at this time

METAR text: LTBJ 211850Z 02010KT CAVOK 12/M03 Q1020 NOSIG RMK RWY16 36014KT
Conditions at: LTBJ (IZMIR/ADNAN MEND, TR) observed 1850 UTC 21 April 2019
Temperature: 12.0°C (54°F)
Dewpoint: -3.0°C (27°F) [RH = 35%]
Pressure (altimeter): 30.12 inches Hg (1020.0 mb)
Winds: from the NNE (20 degrees) at 12 MPH (10 knots; 5.1 m/s)
Visibility: 6 or more miles (10+ km)
Ceiling: ceiling and visibility are OK
Clouds: unknown
Weather: no significant weather observed at this time

METAR text: LTBJ 211820Z 03008KT CAVOK 12/M03 Q1020 NOSIG RMK RWY16 01013KT
Conditions at: LTBJ (IZMIR/ADNAN MEND, TR) observed 1820 UTC 21 April 2019
Temperature: 12.0°C (54°F)
Dewpoint: -3.0°C (27°F) [RH = 35%]
Pressure (altimeter): 30.12 inches Hg (1020.0 mb)
Winds: from the NNE (30 degrees) at 9 MPH (8 knots; 4.1 m/s)
Visibility: 6 or more miles (10+ km)
Ceiling: ceiling and visibility are OK
Clouds: unknown
Weather: no significant weather observed at this time

METAR text: LTBJ 211750Z 01005KT CAVOK 11/M02 Q1020 NOSIG RMK RWY16 01010KT
Conditions at: LTBJ (IZMIR/ADNAN MEND, TR) observed 1750 UTC 21 April 2019
Temperature: 11.0°C (52°F)
Dewpoint: -2.0°C (28°F) [RH = 40%]
Pressure (altimeter): 30.12 inches Hg (1020.0 mb)
Winds: from the N (10 degrees) at 6 MPH (5 knots; 2.6 m/s)
Visibility: 6 or more miles (10+ km)
Ceiling: ceiling and visibility are OK
Clouds: unknown
Weather: no significant weather observed at this time

METAR text: LTBJ 211720Z 36011KT CAVOK 13/01 Q1020 NOSIG RMK RWY16 36010KT
Conditions at: LTBJ (IZMIR/ADNAN MEND, TR) observed 1720 UTC 21 April 2019
Temperature: 13.0°C (55°F)
Dewpoint: 1.0°C (34°F) [RH = 44%]
Pressure (altimeter): 30.12 inches Hg (1020.0 mb)
Winds: from the N (360 degrees) at 13 MPH (11 knots; 5.7 m/s)
Visibility: 6 or more miles (10+ km)
Ceiling: ceiling and visibility are OK
Clouds: unknown
Weather: no significant weather observed at this time

METAR text: LTBJ 211650Z 34010KT CAVOK 13/02 Q1020 NOSIG RMK RWY16 33012KT
Conditions at: LTBJ (IZMIR/ADNAN MEND, TR) observed 1650 UTC 21 April 2019
Temperature: 13.0°C (55°F)
Dewpoint: 2.0°C (36°F) [RH = 47%]
Pressure (altimeter): 30.12 inches Hg (1020.0 mb)
Winds: from the NNW (340 degrees) at 12 MPH (10 knots; 5.1 m/s)
Visibility: 6 or more miles (10+ km)
Ceiling: ceiling and visibility are OK
Clouds: unknown
Weather: no significant weather observed at this time

METAR text: LTBJ 211620Z 33010KT CAVOK 14/01 Q1020 NOSIG RMK RWY16 32012KT
Conditions at: LTBJ (IZMIR/ADNAN MEND, TR) observed 1620 UTC 21 April 2019
Temperature: 14.0°C (57°F)
Dewpoint: 1.0°C (34°F) [RH = 41%]
Pressure (altimeter): 30.12 inches Hg (1020.0 mb)
Winds: from the NNW (330 degrees) at 12 MPH (10 knots; 5.1 m/s)
Visibility: 6 or more miles (10+ km)
Ceiling: ceiling and visibility are OK
Clouds: unknown
Weather: no significant weather observed at this time

METAR text: LTBJ 211550Z 33012KT 300V010 CAVOK 15/00 Q1020 NOSIG RMK RWY16 33014KT
Conditions at: LTBJ (IZMIR/ADNAN MEND, TR) observed 1550 UTC 21 April 2019
Temperature: 15.0°C (59°F)
Dewpoint: 0.0°C (32°F) [RH = 36%]
Pressure (altimeter): 30.12 inches Hg (1020.0 mb)
Winds: from the NNW (330 degrees) at 14 MPH (12 knots; 6.2 m/s)
Visibility: 6 or more miles (10+ km)
Ceiling: ceiling and visibility are OK
Clouds: unknown
Weather: no significant weather observed at this time

METAR text: LTBJ 211520Z 34015KT 310V010 CAVOK 15/M01 Q1020 NOSIG RMK RWY16 33015KT
Conditions at: LTBJ (IZMIR/ADNAN MEND, TR) observed 1520 UTC 21 April 2019
Temperature: 15.0°C (59°F)
Dewpoint: -1.0°C (30°F) [RH = 33%]
Pressure (altimeter): 30.12 inches Hg (1020.0 mb)
Winds: from the NNW (340 degrees) at 17 MPH (15 knots; 7.7 m/s)
Visibility: 6 or more miles (10+ km)
Ceiling: ceiling and visibility are OK
Clouds: unknown
Weather: no significant weather observed at this time

METAR text: LTBJ 211450Z 32011KT 290V350 CAVOK 15/00 Q1020 NOSIG RMK RWY16 32013KT
Conditions at: LTBJ (IZMIR/ADNAN MEND, TR) observed 1450 UTC 21 April 2019
Temperature: 15.0°C (59°F)
Dewpoint: 0.0°C (32°F) [RH = 36%]
Pressure (altimeter): 30.12 inches Hg (1020.0 mb)
Winds: from the NW (320 degrees) at 13 MPH (11 knots; 5.7 m/s)
Visibility: 6 or more miles (10+ km)
Ceiling: ceiling and visibility are OK
Clouds: unknown
Weather: no significant weather observed at this time

METAR text: LTBJ 211420Z 34015KT CAVOK 16/M00 Q1020 NOSIG RMK RWY16 33015KT
Conditions at: LTBJ (IZMIR/ADNAN MEND, TR) observed 1420 UTC 21 April 2019
Temperature: 16.0°C (61°F)
Dewpoint: 0.0°C (32°F) [RH = 34%]
Pressure (altimeter): 30.12 inches Hg (1020.0 mb)
Winds: from the NNW (340 degrees) at 17 MPH (15 knots; 7.7 m/s)
Visibility: 6 or more miles (10+ km)
Ceiling: ceiling and visibility are OK
Clouds: unknown
Weather: no significant weather observed at this time

METAR text: LTBJ 211350Z 33017KT 9999 FEW030 16/M01 Q1020 NOSIG RMK RWY16 32016KT
Conditions at: LTBJ (IZMIR/ADNAN MEND, TR) observed 1350 UTC 21 April 2019
Temperature: 16.0°C (61°F)
Dewpoint: -1.0°C (30°F) [RH = 31%]
Pressure (altimeter): 30.12 inches Hg (1020.0 mb)
Winds: from the NNW (330 degrees) at 20 MPH (17 knots; 8.7 m/s)
Visibility: 6 or more miles (10+ km)
Ceiling: at least 12,000 feet AGL
Clouds: few clouds at 3000 feet AGL
Weather: no significant weather observed at this time

METAR text: LTBJ 211320Z 33018KT 9999 FEW030 16/M01 Q1020 NOSIG RMK RWY16 33016KT
Conditions at: LTBJ (IZMIR/ADNAN MEND, TR) observed 1320 UTC 21 April 2019
Temperature: 16.0°C (61°F)
Dewpoint: -1.0°C (30°F) [RH = 31%]
Pressure (altimeter): 30.12 inches Hg (1020.0 mb)
Winds: from the NNW (330 degrees) at 21 MPH (18 knots; 9.3 m/s)
Visibility: 6 or more miles (10+ km)
Ceiling: at least 12,000 feet AGL
Clouds: few clouds at 3000 feet AGL
Weather: no significant weather observed at this time

METAR text: LTBJ 211250Z 35012KT 9999 FEW030 16/M01 Q1020 NOSIG RMK RWY16 34014KT 310V020
Conditions at: LTBJ (IZMIR/ADNAN MEND, TR) observed 1250 UTC 21 April 2019
Temperature: 16.0°C (61°F)
Dewpoint: -1.0°C (30°F) [RH = 31%]
Pressure (altimeter): 30.12 inches Hg (1020.0 mb)
Winds: from the N (350 degrees) at 14 MPH (12 knots; 6.2 m/s)
Visibility: 6 or more miles (10+ km)
Ceiling: at least 12,000 feet AGL
Clouds: few clouds at 3000 feet AGL
Weather: no significant weather observed at this time

METAR text: LTBJ 211220Z 35014KT 320V030 9999 FEW030 16/00 Q1020 NOSIG RMK RWY16 35013KT 320V030
Conditions at: LTBJ (IZMIR/ADNAN MEND, TR) observed 1220 UTC 21 April 2019
Temperature: 16.0°C (61°F)
Dewpoint: 0.0°C (32°F) [RH = 34%]
Pressure (altimeter): 30.12 inches Hg (1020.0 mb)
Winds: from the N (350 degrees) at 16 MPH (14 knots; 7.2 m/s)
Visibility: 6 or more miles (10+ km)
Ceiling: at least 12,000 feet AGL
Clouds: few clouds at 3000 feet AGL
Weather: no significant weather observed at this time

METAR text: LTBJ 211150Z 36014KT 330V030 9999 FEW030 16/M01 Q1021 NOSIG RMK RWY16 01011KT 320V050
Conditions at: LTBJ (IZMIR/ADNAN MEND, TR) observed 1150 UTC 21 April 2019
Temperature: 16.0°C (61°F)
Dewpoint: -1.0°C (30°F) [RH = 31%]
Pressure (altimeter): 30.15 inches Hg (1021.0 mb)
Winds: from the N (360 degrees) at 16 MPH (14 knots; 7.2 m/s)
Visibility: 6 or more miles (10+ km)
Ceiling: at least 12,000 feet AGL
Clouds: few clouds at 3000 feet AGL
Weather: no significant weather observed at this time

METAR text: LTBJ 211120Z 01013KT 340V060 9999 FEW030 16/M00 Q1021 NOSIG RMK RWY16 33014KT
Conditions at: LTBJ (IZMIR/ADNAN MEND, TR) observed 1120 UTC 21 April 2019
Temperature: 16.0°C (61°F)
Dewpoint: 0.0°C (32°F) [RH = 34%]
Pressure (altimeter): 30.15 inches Hg (1021.0 mb)
Winds: from the N (10 degrees) at 15 MPH (13 knots; 6.7 m/s)
Visibility: 6 or more miles (10+ km)
Ceiling: at least 12,000 feet AGL
Clouds: few clouds at 3000 feet AGL
Weather: no significant weather observed at this time

METAR text: LTBJ 211050Z 36015KT 9999 FEW030 15/M01 Q1021 NOSIG RMK RWY16 36014KT 330V030
Conditions at: LTBJ (IZMIR/ADNAN MEND, TR) observed 1050 UTC 21 April 2019
Temperature: 15.0°C (59°F)
Dewpoint: -1.0°C (30°F) [RH = 33%]
Pressure (altimeter): 30.15 inches Hg (1021.0 mb)
Winds: from the N (360 degrees) at 17 MPH (15 knots; 7.7 m/s)
Visibility: 6 or more miles (10+ km)
Ceiling: at least 12,000 feet AGL
Clouds: few clouds at 3000 feet AGL
Weather: no significant weather observed at this time

METAR text: LTBJ 211020Z 02017KT 9999 FEW030 14/M03 Q1022 NOSIG RMK RWY16 01014KT 340V040
Conditions at: LTBJ (IZMIR/ADNAN MEND, TR) observed 1020 UTC 21 April 2019
Temperature: 14.0°C (57°F)
Dewpoint: -3.0°C (27°F) [RH = 31%]
Pressure (altimeter): 30.18 inches Hg (1022.0 mb)
Winds: from the NNE (20 degrees) at 20 MPH (17 knots; 8.7 m/s)
Visibility: 6 or more miles (10+ km)
Ceiling: at least 12,000 feet AGL
Clouds: few clouds at 3000 feet AGL
Weather: no significant weather observed at this time

METAR text: LTBJ 210950Z 01016KT 9999 FEW030 14/M02 Q1022 NOSIG RMK RWY16 36016KT
Conditions at: LTBJ (IZMIR/ADNAN MEND, TR) observed 0950 UTC 21 April 2019
Temperature: 14.0°C (57°F)
Dewpoint: -2.0°C (28°F) [RH = 33%]
Pressure (altimeter): 30.18 inches Hg (1022.0 mb)
Winds: from the N (10 degrees) at 18 MPH (16 knots; 8.2 m/s)
Visibility: 6 or more miles (10+ km)
Ceiling: at least 12,000 feet AGL
Clouds: few clouds at 3000 feet AGL
Weather: no significant weather observed at this time

METAR text: LTBJ 210920Z 01017KT 9999 FEW030 14/M01 Q1023 NOSIG RMK RWY16 01016KT
Conditions at: LTBJ (IZMIR/ADNAN MEND, TR) observed 0920 UTC 21 April 2019
Temperature: 14.0°C (57°F)
Dewpoint: -1.0°C (30°F) [RH = 36%]
Pressure (altimeter): 30.21 inches Hg (1023.0 mb)
Winds: from the N (10 degrees) at 20 MPH (17 knots; 8.7 m/s)
Visibility: 6 or more miles (10+ km)
Ceiling: at least 12,000 feet AGL
Clouds: few clouds at 3000 feet AGL
Weather: no significant weather observed at this time

METAR text: LTBJ 210850Z 02021KT 9999 FEW030 13/M01 Q1023 NOSIG RMK RWY16 01016KT
Conditions at: LTBJ (IZMIR/ADNAN MEND, TR) observed 0850 UTC 21 April 2019
Temperature: 13.0°C (55°F)
Dewpoint: -1.0°C (30°F) [RH = 38%]
Pressure (altimeter): 30.21 inches Hg (1023.0 mb)
Winds: from the NNE (20 degrees) at 24 MPH (21 knots; 10.8 m/s)
Visibility: 6 or more miles (10+ km)
Ceiling: at least 12,000 feet AGL
Clouds: few clouds at 3000 feet AGL
Weather: no significant weather observed at this time

METAR text: LTBJ 210820Z 02020KT 9999 FEW030 12/M03 Q1023 NOSIG RMK RWY16 36016KT
Conditions at: LTBJ (IZMIR/ADNAN MEND, TR) observed 0820 UTC 21 April 2019
Temperature: 12.0°C (54°F)
Dewpoint: -3.0°C (27°F) [RH = 35%]
Pressure (altimeter): 30.21 inches Hg (1023.0 mb)
Winds: from the NNE (20 degrees) at 23 MPH (20 knots; 10.3 m/s)
Visibility: 6 or more miles (10+ km)
Ceiling: at least 12,000 feet AGL
Clouds: few clouds at 3000 feet AGL
Weather: no significant weather observed at this time

METAR text: LTBJ 210750Z 36021KT 9999 FEW030 12/M01 Q1023 NOSIG RMK RWY16 36018KT
Conditions at: LTBJ (IZMIR/ADNAN MEND, TR) observed 0750 UTC 21 April 2019
Temperature: 12.0°C (54°F)
Dewpoint: -1.0°C (30°F) [RH = 40%]
Pressure (altimeter): 30.21 inches Hg (1023.0 mb)
Winds: from the N (360 degrees) at 24 MPH (21 knots; 10.8 m/s)
Visibility: 6 or more miles (10+ km)
Ceiling: at least 12,000 feet AGL
Clouds: few clouds at 3000 feet AGL
Weather: no significant weather observed at this time

METAR text: LTBJ 210720Z 01018KT 9999 FEW030 11/M02 Q1023 NOSIG RMK RWY16 36016G26KT 340V040
Conditions at: LTBJ (IZMIR/ADNAN MEND, TR) observed 0720 UTC 21 April 2019
Temperature: 11.0°C (52°F)
Dewpoint: -2.0°C (28°F) [RH = 40%]
Pressure (altimeter): 30.21 inches Hg (1023.0 mb)
Winds: from the N (10 degrees) at 21 MPH (18 knots; 9.3 m/s)
Visibility: 6 or more miles (10+ km)
Ceiling: at least 12,000 feet AGL
Clouds: few clouds at 3000 feet AGL
Weather: no significant weather observed at this time

METAR text: LTBJ 210650Z 01019KT 9999 FEW030 11/M03 Q1023 NOSIG RMK RWY16 36018KT
Conditions at: LTBJ (IZMIR/ADNAN MEND, TR) observed 0650 UTC 21 April 2019
Temperature: 11.0°C (52°F)
Dewpoint: -3.0°C (27°F) [RH = 37%]
Pressure (altimeter): 30.21 inches Hg (1023.0 mb)
Winds: from the N (10 degrees) at 22 MPH (19 knots; 9.8 m/s)
Visibility: 6 or more miles (10+ km)
Ceiling: at least 12,000 feet AGL
Clouds: few clouds at 3000 feet AGL
Weather: no significant weather observed at this time

METAR text: LTBJ 210646Z 36016G26KT 330V030 9999 FEW030 11/M02 Q1023 NOSIG RMK RWY16 36016G26KT 330V030
Conditions at: LTBJ (IZMIR/ADNAN MEND, TR) observed 0646 UTC 21 April 2019
Temperature: 11.0°C (52°F)
Dewpoint: -2.0°C (28°F) [RH = 40%]
Pressure (altimeter): 30.21 inches Hg (1023.0 mb)
Winds: from the N (360 degrees) at 18 MPH (16 knots; 8.2 m/s)
gusting to 30 MPH (26 knots; 13.4 m/s)
Visibility: 6 or more miles (10+ km)
Ceiling: at least 12,000 feet AGL
Clouds: few clouds at 3000 feet AGL
Weather: no significant weather observed at this time

METAR text: LTBJ 210620Z 36014KT 9999 FEW030 10/M01 Q1023 NOSIG RMK RWY16 35015KT
Conditions at: LTBJ (IZMIR/ADNAN MEND, TR) observed 0620 UTC 21 April 2019
Temperature: 10.0°C (50°F)
Dewpoint: -1.0°C (30°F) [RH = 46%]
Pressure (altimeter): 30.21 inches Hg (1023.0 mb)
Winds: from the N (360 degrees) at 16 MPH (14 knots; 7.2 m/s)
Visibility: 6 or more miles (10+ km)
Ceiling: at least 12,000 feet AGL
Clouds: few clouds at 3000 feet AGL
Weather: no significant weather observed at this time

METAR text: LTBJ 210550Z 35013KT 9999 FEW030 09/M01 Q1023 NOSIG RMK RWY16 36013KT
Conditions at: LTBJ (IZMIR/ADNAN MEND, TR) observed 0550 UTC 21 April 2019
Temperature: 9.0°C (48°F)
Dewpoint: -1.0°C (30°F) [RH = 49%]
Pressure (altimeter): 30.21 inches Hg (1023.0 mb)
Winds: from the N (350 degrees) at 15 MPH (13 knots; 6.7 m/s)
Visibility: 6 or more miles (10+ km)
Ceiling: at least 12,000 feet AGL
Clouds: few clouds at 3000 feet AGL
Weather: no significant weather observed at this time

METAR text: LTBJ 210520Z 01014KT 9999 FEW030 09/M01 Q1023 NOSIG RMK RWY16 01013KT
Conditions at: LTBJ (IZMIR/ADNAN MEND, TR) observed 0520 UTC 21 April 2019
Temperature: 9.0°C (48°F)
Dewpoint: -1.0°C (30°F) [RH = 49%]
Pressure (altimeter): 30.21 inches Hg (1023.0 mb)
Winds: from the N (10 degrees) at 16 MPH (14 knots; 7.2 m/s)
Visibility: 6 or more miles (10+ km)
Ceiling: at least 12,000 feet AGL
Clouds: few clouds at 3000 feet AGL
Weather: no significant weather observed at this time

METAR text: LTBJ 210450Z 01012KT 9999 FEW030 08/M01 Q1023 NOSIG RMK RWY16 01012KT
Conditions at: LTBJ (IZMIR/ADNAN MEND, TR) observed 0450 UTC 21 April 2019
Temperature: 8.0°C (46°F)
Dewpoint: -1.0°C (30°F) [RH = 53%]
Pressure (altimeter): 30.21 inches Hg (1023.0 mb)
Winds: from the N (10 degrees) at 14 MPH (12 knots; 6.2 m/s)
Visibility: 6 or more miles (10+ km)
Ceiling: at least 12,000 feet AGL
Clouds: few clouds at 3000 feet AGL
Weather: no significant weather observed at this time

METAR text: LTBJ 210420Z 01010KT 9999 FEW030 07/M01 Q1023 NOSIG RMK RWY16 35011KT
Conditions at: LTBJ (IZMIR/ADNAN MEND, TR) observed 0420 UTC 21 April 2019
Temperature: 7.0°C (45°F)
Dewpoint: -1.0°C (30°F) [RH = 57%]
Pressure (altimeter): 30.21 inches Hg (1023.0 mb)
Winds: from the N (10 degrees) at 12 MPH (10 knots; 5.1 m/s)
Visibility: 6 or more miles (10+ km)
Ceiling: at least 12,000 feet AGL
Clouds: few clouds at 3000 feet AGL
Weather: no significant weather observed at this time

METAR text: LTBJ 210350Z 01009KT CAVOK 06/M01 Q1023 NOSIG RMK RWY16 36007KT
Conditions at: LTBJ (IZMIR/ADNAN MEND, TR) observed 0350 UTC 21 April 2019
Temperature: 6.0°C (43°F)
Dewpoint: -1.0°C (30°F) [RH = 61%]
Pressure (altimeter): 30.21 inches Hg (1023.0 mb)
Winds: from the N (10 degrees) at 10 MPH (9 knots; 4.6 m/s)
Visibility: 6 or more miles (10+ km)
Ceiling: ceiling and visibility are OK
Clouds: unknown
Weather: no significant weather observed at this time

METAR text: LTBJ 210320Z 36009KT CAVOK 06/M01 Q1023 NOSIG RMK RWY16 36009KT
Conditions at: LTBJ (IZMIR/ADNAN MEND, TR) observed 0320 UTC 21 April 2019
Temperature: 6.0°C (43°F)
Dewpoint: -1.0°C (30°F) [RH = 61%]
Pressure (altimeter): 30.21 inches Hg (1023.0 mb)
Winds: from the N (360 degrees) at 10 MPH (9 knots; 4.6 m/s)
Visibility: 6 or more miles (10+ km)
Ceiling: ceiling and visibility are OK
Clouds: unknown
Weather: no significant weather observed at this time

METAR text: LTBJ 210250Z 04005KT CAVOK 06/M02 Q1023 NOSIG RMK RWY16 36009KT
Conditions at: LTBJ (IZMIR/ADNAN MEND, TR) observed 0250 UTC 21 April 2019
Temperature: 6.0°C (43°F)
Dewpoint: -2.0°C (28°F) [RH = 56%]
Pressure (altimeter): 30.21 inches Hg (1023.0 mb)
Winds: from the NE (40 degrees) at 6 MPH (5 knots; 2.6 m/s)
Visibility: 6 or more miles (10+ km)
Ceiling: ceiling and visibility are OK
Clouds: unknown
Weather: no significant weather observed at this time

METAR text: LTBJ 210220Z 02004KT CAVOK 06/M01 Q1023 BECMG 36014KT RMK RWY16 02006KT
Conditions at: LTBJ (IZMIR/ADNAN MEND, TR) observed 0220 UTC 21 April 2019
Temperature: 6.0°C (43°F)
Dewpoint: -1.0°C (30°F) [RH = 61%]
Pressure (altimeter): 30.21 inches Hg (1023.0 mb)
Winds: from the NNE (20 degrees) at 5 MPH (4 knots; 2.1 m/s)
Visibility: 6 or more miles (10+ km)
Ceiling: ceiling and visibility are OK
Clouds: unknown
Weather: no significant weather observed at this time

Forecast for: LTBJ (IZMIR/ADNAN MEND, TR)
Text: TAF LTBJ 221040Z 2212/2312 36015G25KT CAVOK
Forecast period: 1200 to 1800 UTC 22 April 2019
Forecast type: FROM: standard forecast or significant change
Winds: from the N (360 degrees) at 17 MPH (15 knots; 7.7 m/s)
gusting to 29 MPH (25 knots; 12.9 m/s)
Visibility: 6 or more miles 10+ km)
Ceiling: unknown
Clouds: missing
Weather: NSW  (no significant weather)
Text: BECMG 2218/2221 VRB02KT
Forecast period: 1800 UTC 22 April 2019 to 1000 UTC 23 April 2019
Forecast type: BECOMING: Conditions expected to become as follows by 2100 UTC 22 April 2019
Winds: variable direction winds at 2 MPH (2 knots; 1.0 m/s)
Visibility: 6 or more miles 10+ km)
Ceiling: unknown
Clouds: missing
Weather: NSW  (no significant weather)
Text: BECMG 2310/2312 FEW030 BKN110
Forecast period: 1000 to 1200 UTC 23 April 2019
Forecast type: BECOMING: Conditions expected to become as follows by 1200 UTC 23 April 2019
Winds: variable direction winds at 2 MPH (2 knots; 1.0 m/s)
Visibility: 6 or more miles 10+ km)
Ceiling: 11000 feet AGL
Clouds: few clouds at 3000 feet AGL
broken clouds at 11000 feet AGL
Weather: NSW  (no significant weather)